createdAt,value
2018-07-08T00:01:14.440Z,54.78
2018-07-08T00:04:17.888Z,54.59
2018-07-08T00:07:21.057Z,54.34
2018-07-08T00:10:24.453Z,55.68
2018-07-08T00:13:27.696Z,54.33
2018-07-08T00:16:30.962Z,55.72
2018-07-08T00:19:34.192Z,54.88
2018-07-08T00:22:37.356Z,54.95
2018-07-08T00:25:40.618Z,55.91
2018-07-08T00:28:43.819Z,55.28
2018-07-08T00:31:47.054Z,55.55
2018-07-08T00:34:50.284Z,55.19
2018-07-08T00:37:53.619Z,55.63
2018-07-08T00:40:56.837Z,55.79
2018-07-08T00:43:59.991Z,55.50
2018-07-08T00:47:03.214Z,55.94
2018-07-08T00:50:06.421Z,56.01
2018-07-08T00:53:09.620Z,55.99
2018-07-08T00:56:12.827Z,56.75
2018-07-08T00:59:16.069Z,56.87
2018-07-08T01:02:19.280Z,57.58
2018-07-08T01:05:22.489Z,57.25
2018-07-08T01:08:25.652Z,57.91
2018-07-08T01:11:28.860Z,57.92
2018-07-08T01:14:32.062Z,57.48
2018-07-08T01:17:35.603Z,58.18
2018-07-08T01:20:38.807Z,57.06
2018-07-08T01:23:42.005Z,57.95
2018-07-08T01:26:45.186Z,57.89
2018-07-08T01:29:48.420Z,58.00
2018-07-08T01:32:51.549Z,57.25
2018-07-08T01:35:54.724Z,58.35
2018-07-08T01:38:57.838Z,57.90
2018-07-08T01:42:01.041Z,58.21
2018-07-08T01:45:04.151Z,58.52
2018-07-08T01:48:07.310Z,59.06
2018-07-08T01:51:10.490Z,59.22
2018-07-08T01:54:13.605Z,59.04
2018-07-08T01:57:16.779Z,59.01
2018-07-08T02:00:19.960Z,59.14
2018-07-08T02:03:23.085Z,59.59
2018-07-08T02:06:26.250Z,59.87
2018-07-08T02:09:29.431Z,59.77
2018-07-08T02:12:32.704Z,59.13
2018-07-08T02:15:35.905Z,59.71
2018-07-08T02:18:39.116Z,59.71
2018-07-08T02:21:42.278Z,59.50
2018-07-08T02:24:45.438Z,59.70
2018-07-08T02:27:48.625Z,58.59
2018-07-08T02:30:51.765Z,60.59
2018-07-08T02:33:54.917Z,59.32
2018-07-08T02:36:58.105Z,58.91
2018-07-08T02:40:01.288Z,58.88
2018-07-08T02:43:04.457Z,58.84
2018-07-08T02:46:07.595Z,58.18
2018-07-08T02:49:10.786Z,59.00
2018-07-08T02:52:14.000Z,58.71
2018-07-08T02:55:17.148Z,60.00
2018-07-08T02:58:20.315Z,60.02
2018-07-08T03:01:24.076Z,60.08
2018-07-08T03:04:27.235Z,59.00
2018-07-08T03:07:30.403Z,59.61
2018-07-08T03:10:33.662Z,59.33
2018-07-08T03:13:36.833Z,59.74
2018-07-08T03:16:39.976Z,59.66
2018-07-08T03:19:43.118Z,60.36
2018-07-08T03:22:46.309Z,59.93
2018-07-08T03:25:49.640Z,59.91
2018-07-08T03:28:52.854Z,59.39
2018-07-08T03:31:56.043Z,61.61
2018-07-08T03:34:59.202Z,60.22
2018-07-08T03:38:02.659Z,60.43
2018-07-08T03:41:05.866Z,61.08
2018-07-08T03:44:09.300Z,61.27
2018-07-08T03:47:12.502Z,60.99
2018-07-08T03:50:15.677Z,60.71
2018-07-08T03:53:18.857Z,60.27
2018-07-08T03:56:21.991Z,60.85
2018-07-08T03:59:25.205Z,60.42
2018-07-08T04:02:28.429Z,60.24
2018-07-08T04:05:31.608Z,59.98
2018-07-08T04:08:34.794Z,60.96
2018-07-08T04:11:37.966Z,60.06
2018-07-08T04:14:41.149Z,60.97
2018-07-08T04:17:44.326Z,61.82
2018-07-08T04:20:47.503Z,61.00
2018-07-08T04:23:50.670Z,61.71
2018-07-08T04:26:53.823Z,61.12
2018-07-08T04:29:57.102Z,60.92
2018-07-08T04:33:00.662Z,61.24
2018-07-08T04:36:03.813Z,61.48
2018-07-08T04:39:07.865Z,60.39
2018-07-08T04:42:11.005Z,60.75
2018-07-08T04:45:14.240Z,60.78
2018-07-08T04:48:17.470Z,60.84
2018-07-08T04:51:20.630Z,60.77
2018-07-08T04:54:23.814Z,60.68
2018-07-08T04:57:27.058Z,60.96
2018-07-08T05:00:30.217Z,60.81
2018-07-08T05:03:33.413Z,60.89
2018-07-08T05:06:36.749Z,61.00
2018-07-08T05:09:39.912Z,60.61
2018-07-08T05:12:43.174Z,60.78
2018-07-08T05:15:46.431Z,60.55
2018-07-08T05:18:50.770Z,60.97
2018-07-08T05:21:53.982Z,60.94
2018-07-08T05:24:58.138Z,61.37
2018-07-08T05:28:01.402Z,60.54
2018-07-08T05:31:04.586Z,60.91
2018-07-08T05:34:07.808Z,61.04
2018-07-08T05:37:11.485Z,61.13
2018-07-08T05:40:17.738Z,61.57
2018-07-08T05:43:20.962Z,61.19
2018-07-08T05:46:24.375Z,61.84
2018-07-08T05:49:27.975Z,61.35
2018-07-08T05:52:31.209Z,61.95
2018-07-08T05:55:34.434Z,62.47
2018-07-08T05:58:37.759Z,62.21
2018-07-08T06:01:46.116Z,61.76
2018-07-08T06:04:49.403Z,61.38
2018-07-08T06:07:53.119Z,62.49
2018-07-08T06:10:56.452Z,62.95
2018-07-08T06:13:59.748Z,62.54
2018-07-08T06:17:03.066Z,62.67
2018-07-08T06:20:12.623Z,61.65
2018-07-08T06:23:17.077Z,61.91
2018-07-08T06:26:20.425Z,61.79
2018-07-08T06:29:23.788Z,61.29
2018-07-08T06:32:27.024Z,61.53
2018-07-08T06:35:30.398Z,61.76
2018-07-08T06:38:42.180Z,61.54
2018-07-08T06:41:53.227Z,61.40
2018-07-08T06:45:00.498Z,61.80
2018-07-08T06:48:03.814Z,61.39
2018-07-08T06:51:07.097Z,62.46
2018-07-08T06:54:10.378Z,63.94
2018-07-08T06:57:13.630Z,63.85
2018-07-08T07:00:16.909Z,63.70
2018-07-08T07:03:20.267Z,62.31
2018-07-08T07:06:23.564Z,62.80
2018-07-08T07:09:26.891Z,63.07
2018-07-08T07:12:32.255Z,63.31
2018-07-08T07:15:37.621Z,62.56
2018-07-08T07:18:40.880Z,61.97
2018-07-08T07:21:44.269Z,61.75
2018-07-08T07:24:47.536Z,61.49
2018-07-08T07:27:51.073Z,61.93
2018-07-08T07:30:54.393Z,60.68
2018-07-08T07:33:57.736Z,60.56
2018-07-08T07:37:01.451Z,61.42
2018-07-08T07:40:05.072Z,61.04
2018-07-08T07:43:08.515Z,61.90
2018-07-08T07:46:11.964Z,62.59
2018-07-08T07:49:15.815Z,60.83
2018-07-08T07:52:19.128Z,61.38
2018-07-08T07:55:24.047Z,60.54
2018-07-08T07:58:27.413Z,60.11
2018-07-08T08:01:31.041Z,60.71
2018-07-08T08:04:34.438Z,59.86
2018-07-08T08:07:38.112Z,60.87
2018-07-08T08:10:41.776Z,60.69
2018-07-08T08:13:58.329Z,60.26
2018-07-08T08:17:01.873Z,60.35
2018-07-08T08:20:05.478Z,61.83
2018-07-08T08:23:08.922Z,61.61
2018-07-08T08:26:12.322Z,61.02
2018-07-08T08:29:15.738Z,61.58
2018-07-08T08:32:19.153Z,61.44
2018-07-08T08:35:22.558Z,61.23
2018-07-08T08:38:25.995Z,60.96
2018-07-08T08:41:29.482Z,60.15
2018-07-08T08:44:32.825Z,59.12
2018-07-08T08:47:37.058Z,58.51
2018-07-08T08:50:41.072Z,58.58
2018-07-08T08:53:44.457Z,58.22
2018-07-08T08:56:47.831Z,57.24
2018-07-08T08:59:51.142Z,57.15
2018-07-08T09:02:55.966Z,57.61
2018-07-08T09:06:00.189Z,56.86
2018-07-08T09:09:05.402Z,57.07
2018-07-08T09:12:09.404Z,56.32
2018-07-08T09:15:13.224Z,56.57
2018-07-08T09:18:16.717Z,56.90
2018-07-08T09:21:20.301Z,55.73
2018-07-08T09:24:24.599Z,55.13
2018-07-08T09:27:28.444Z,54.45
2018-07-08T09:30:32.410Z,54.70
2018-07-08T09:33:37.235Z,54.37
2018-07-08T09:36:41.126Z,55.23
2018-07-08T09:39:44.567Z,52.78
2018-07-08T09:42:47.920Z,53.99
2018-07-08T09:45:51.381Z,54.42
2018-07-08T09:48:54.889Z,53.49
2018-07-08T09:51:58.294Z,53.30
2018-07-08T09:55:01.601Z,53.20
2018-07-08T09:58:05.104Z,53.73
2018-07-08T10:01:08.564Z,53.09
2018-07-08T10:04:15.426Z,53.30
2018-07-08T10:07:18.918Z,52.73
2018-07-08T10:10:22.525Z,52.60
2018-07-08T10:13:26.052Z,53.51
2018-07-08T10:16:29.605Z,53.18
2018-07-08T10:19:33.279Z,52.06
2018-07-08T10:22:36.798Z,53.55
2018-07-08T10:25:40.496Z,53.36
2018-07-08T10:28:44.351Z,52.64
2018-07-08T10:31:52.195Z,53.21
2018-07-08T10:34:55.871Z,51.17
2018-07-08T10:37:59.281Z,52.42
2018-07-08T10:41:02.771Z,52.17
2018-07-08T10:44:06.229Z,51.85
2018-07-08T10:47:09.693Z,52.71
2018-07-08T10:50:13.348Z,52.58
2018-07-08T10:53:17.040Z,51.61
2018-07-08T10:56:21.037Z,50.59
2018-07-08T10:59:24.812Z,51.73
2018-07-08T11:02:28.325Z,51.48
2018-07-08T11:05:32.101Z,51.37
2018-07-08T11:08:36.221Z,51.91
2018-07-08T11:11:39.832Z,52.31
2018-07-08T11:14:43.426Z,53.48
2018-07-08T11:17:47.393Z,53.61
2018-07-08T11:20:50.935Z,53.99
2018-07-08T11:23:54.478Z,53.90
2018-07-08T11:26:58.188Z,55.22
2018-07-08T11:30:01.679Z,54.95
2018-07-08T11:33:05.644Z,54.60
2018-07-08T11:36:09.046Z,55.85
2018-07-08T11:39:12.710Z,55.36
2018-07-08T11:42:16.314Z,55.23
2018-07-08T11:45:19.839Z,55.95
2018-07-08T11:48:23.442Z,55.35
2018-07-08T11:51:27.054Z,55.66
2018-07-08T11:54:30.669Z,56.74
2018-07-08T11:57:34.338Z,55.42
2018-07-08T12:00:37.976Z,55.26
2018-07-08T12:03:41.736Z,55.58
2018-07-08T12:06:45.401Z,55.56
2018-07-08T12:09:49.000Z,54.29
2018-07-08T12:12:52.561Z,53.88
2018-07-08T12:15:56.183Z,54.09
2018-07-08T12:18:59.784Z,53.23
2018-07-08T12:22:03.199Z,51.65
2018-07-08T12:25:07.083Z,52.12
2018-07-08T12:28:10.553Z,51.21
2018-07-08T12:31:16.181Z,50.82
2018-07-08T12:34:20.046Z,51.18
2018-07-08T12:37:25.583Z,49.99
2018-07-08T12:40:29.304Z,50.18
2018-07-08T12:43:34.057Z,48.49
2018-07-08T12:46:41.097Z,48.07
2018-07-08T12:49:44.751Z,47.00
2018-07-08T12:52:48.727Z,47.72
2018-07-08T12:55:53.097Z,47.98
2018-07-08T12:58:57.081Z,48.22
2018-07-08T13:02:00.656Z,48.09
2018-07-08T13:05:04.539Z,49.06
2018-07-08T13:08:08.536Z,48.50
2018-07-08T13:11:13.249Z,48.66
2018-07-08T13:14:16.814Z,46.99
2018-07-08T13:17:21.068Z,45.73
2018-07-08T13:20:26.103Z,45.25
2018-07-08T13:23:31.418Z,45.25
2018-07-08T13:26:35.757Z,46.05
2018-07-08T13:29:39.351Z,44.63
2018-07-08T13:32:43.187Z,45.83
2018-07-08T13:35:46.813Z,44.42
2018-07-08T13:38:52.455Z,44.96
2018-07-08T13:41:56.270Z,44.67
2018-07-08T13:44:59.774Z,45.13
2018-07-08T13:48:04.037Z,45.47
2018-07-08T13:51:07.949Z,45.01
2018-07-08T13:54:11.554Z,45.50
2018-07-08T13:57:14.998Z,45.75
2018-07-08T14:00:19.207Z,46.27
2018-07-08T14:03:25.162Z,45.92
2018-07-08T14:06:29.268Z,46.92
2018-07-08T14:09:36.147Z,46.38
2018-07-08T14:12:39.736Z,45.33
2018-07-08T14:15:43.989Z,45.33
2018-07-08T14:18:48.065Z,44.49
2018-07-08T14:21:51.685Z,44.30
2018-07-08T14:24:56.290Z,44.40
2018-07-08T14:28:00.252Z,45.14
2018-07-08T14:31:04.858Z,45.27
2018-07-08T14:34:08.885Z,44.57
2018-07-08T14:37:13.094Z,45.07
2018-07-08T14:40:17.036Z,44.21
2018-07-08T14:43:20.781Z,43.51
2018-07-08T14:46:24.892Z,42.78
2018-07-08T14:49:28.625Z,43.21
2018-07-08T14:52:32.511Z,43.62
2018-07-08T14:55:38.065Z,42.85
2018-07-08T14:58:41.790Z,43.46
2018-07-08T15:01:45.496Z,43.07
2018-07-08T15:04:49.367Z,42.49
2018-07-08T15:07:53.193Z,42.28
2018-07-08T15:10:56.909Z,42.41
2018-07-08T15:14:00.680Z,42.65
2018-07-08T15:17:05.793Z,43.64
2018-07-08T15:20:10.288Z,43.90
2018-07-08T15:23:14.089Z,43.28
2018-07-08T15:26:17.817Z,42.96
2018-07-08T15:29:21.230Z,42.49
2018-07-08T15:32:26.027Z,42.93
2018-07-08T15:35:29.791Z,42.50
2018-07-08T15:38:35.630Z,42.53
2018-07-08T15:41:39.682Z,42.86
2018-07-08T15:44:43.654Z,43.79
2018-07-08T15:47:47.754Z,44.02
2018-07-08T15:50:51.330Z,43.21
2018-07-08T15:53:54.973Z,42.95
2018-07-08T15:56:59.197Z,43.96
2018-07-08T16:00:04.511Z,44.40
2018-07-08T16:03:08.572Z,43.86
2018-07-08T16:06:12.639Z,43.32
2018-07-08T16:09:16.911Z,44.04
2018-07-08T16:12:21.058Z,44.44
2018-07-08T16:15:24.782Z,44.69
2018-07-08T16:18:29.883Z,47.85
2018-07-08T16:21:35.087Z,49.50
2018-07-08T16:24:39.763Z,48.62
2018-07-08T16:27:43.711Z,49.28
2018-07-08T16:30:49.940Z,51.95
2018-07-08T16:33:57.305Z,50.07
2018-07-08T16:37:03.977Z,51.20
2018-07-08T16:40:08.292Z,50.88
2018-07-08T16:43:13.847Z,51.37
2018-07-08T16:46:19.400Z,50.47
2018-07-08T16:52:43.496Z,50.34
2018-07-08T16:55:48.156Z,49.40
2018-07-08T16:58:53.233Z,49.58
2018-07-08T17:01:57.924Z,50.76
2018-07-08T17:05:03.998Z,50.01
2018-07-08T17:08:08.087Z,49.07
2018-07-08T17:11:12.095Z,49.89
2018-07-08T17:14:16.194Z,49.09
2018-07-08T17:17:20.892Z,49.25
2018-07-08T17:20:25.174Z,51.07
2018-07-08T17:23:34.755Z,50.41
2018-07-08T17:26:52.363Z,50.13
2018-07-08T17:33:37.079Z,49.42
2018-07-08T17:36:53.818Z,49.37
2018-07-08T17:40:00.220Z,47.28
2018-07-08T17:43:08.237Z,48.30
2018-07-08T17:46:16.171Z,47.09
2018-07-08T17:50:18.971Z,46.58
2018-07-08T17:53:27.964Z,46.63
2018-07-08T17:56:34.098Z,47.09
2018-07-08T17:59:40.836Z,47.70
2018-07-08T18:02:47.410Z,48.04
2018-07-08T18:05:58.391Z,48.22
2018-07-08T18:09:08.320Z,48.72
2018-07-08T18:12:15.220Z,48.39
2018-07-08T18:15:22.101Z,48.93
2018-07-08T18:18:26.891Z,48.76
2018-07-08T18:21:31.696Z,48.36
2018-07-08T18:24:39.180Z,49.16
2018-07-08T18:27:46.867Z,48.79
2018-07-08T18:30:53.310Z,49.09
2018-07-08T18:34:07.481Z,49.60
2018-07-08T18:37:12.887Z,49.19
2018-07-08T18:40:19.247Z,48.50
2018-07-08T18:43:26.836Z,47.52
2018-07-08T18:46:37.763Z,46.68
2018-07-08T18:49:44.520Z,45.61
2018-07-08T18:52:50.541Z,45.98
2018-07-08T18:55:56.756Z,45.23
2018-07-08T18:59:03.635Z,45.39
2018-07-08T19:02:10.346Z,45.46
2018-07-08T19:05:16.536Z,46.06
2018-07-08T19:08:23.188Z,46.60
2018-07-08T19:11:28.901Z,45.44
2018-07-08T19:14:34.041Z,46.40
2018-07-08T19:17:37.814Z,46.67
2018-07-08T19:20:42.360Z,47.31
2018-07-08T19:23:47.830Z,46.61
2018-07-08T19:26:51.864Z,46.40
2018-07-08T19:29:58.233Z,47.01
2018-07-08T19:33:02.648Z,47.56
2018-07-08T19:36:07.754Z,47.66
2018-07-08T19:39:12.996Z,47.37
2018-07-08T19:42:17.204Z,47.37
2018-07-08T19:45:20.941Z,46.79
2018-07-08T19:48:25.104Z,47.28
2018-07-08T19:51:29.401Z,47.26
2018-07-08T19:54:34.655Z,47.18
2018-07-08T19:57:38.785Z,47.67
2018-07-08T20:00:43.110Z,48.62
2018-07-08T20:03:47.358Z,48.04
2018-07-08T20:06:51.098Z,47.93
2018-07-08T20:09:55.983Z,48.03
2018-07-08T20:12:59.880Z,47.76
2018-07-08T20:16:03.806Z,48.96
2018-07-08T20:19:07.447Z,49.04
2018-07-08T20:22:11.009Z,48.87
2018-07-08T20:25:16.684Z,49.66
2018-07-08T20:28:20.342Z,48.83
2018-07-08T20:31:24.217Z,49.37
2018-07-08T20:34:28.821Z,48.79
2018-07-08T20:37:34.513Z,50.03
2018-07-08T20:40:38.991Z,50.93
2018-07-08T20:43:42.566Z,50.68
2018-07-08T20:46:47.034Z,50.39
2018-07-08T20:49:51.821Z,50.48
2018-07-08T20:52:55.351Z,51.68
2018-07-08T20:55:59.973Z,51.48
2018-07-08T20:59:03.737Z,50.93
2018-07-08T21:02:07.289Z,51.31
2018-07-08T21:05:10.811Z,51.81
2018-07-08T21:08:14.326Z,52.61
2018-07-08T21:11:17.885Z,51.79
2018-07-08T21:14:21.399Z,52.26
2018-07-08T21:17:24.874Z,52.02
2018-07-08T21:20:28.409Z,52.51
2018-07-08T21:23:31.842Z,52.92
2018-07-08T21:26:35.296Z,52.69
2018-07-08T21:29:38.711Z,53.77
2018-07-08T21:32:42.063Z,53.08
2018-07-08T21:35:45.666Z,52.61
2018-07-08T21:38:49.170Z,53.39
2018-07-08T21:41:52.542Z,53.94
2018-07-08T21:44:56.008Z,53.84
2018-07-08T21:47:59.289Z,54.63
2018-07-08T21:51:02.723Z,54.27
2018-07-08T21:54:06.190Z,54.72
2018-07-08T21:57:09.529Z,54.43
2018-07-08T22:00:12.914Z,55.06
2018-07-08T22:03:16.276Z,54.73
2018-07-08T22:06:20.242Z,55.85
2018-07-08T22:09:23.494Z,55.24
2018-07-08T22:12:26.811Z,54.95
2018-07-08T22:15:30.324Z,54.91
2018-07-08T22:18:34.054Z,54.54
2018-07-08T22:21:37.324Z,55.60
2018-07-08T22:24:40.604Z,56.02
2018-07-08T22:27:44.406Z,55.62
2018-07-08T22:30:47.729Z,54.85
2018-07-08T22:33:50.931Z,55.58
2018-07-08T22:36:54.201Z,54.95
2018-07-08T22:39:57.392Z,54.78
2018-07-08T22:43:00.678Z,55.16
2018-07-08T22:46:03.866Z,54.44
2018-07-08T22:49:07.123Z,54.62
2018-07-08T22:52:10.450Z,54.48
2018-07-08T22:55:13.750Z,54.44
2018-07-08T22:58:17.010Z,54.03
2018-07-08T23:01:31.982Z,54.04
2018-07-08T23:04:35.192Z,53.71
2018-07-08T23:07:38.509Z,53.78
2018-07-08T23:10:41.843Z,53.67
2018-07-08T23:13:45.487Z,53.53
2018-07-08T23:16:48.676Z,53.58
2018-07-08T23:19:51.937Z,52.83
2018-07-08T23:22:57.101Z,52.86
2018-07-08T23:26:00.415Z,53.16
2018-07-08T23:29:03.676Z,53.01
2018-07-08T23:32:06.840Z,52.79
2018-07-08T23:35:10.028Z,52.21
2018-07-08T23:38:13.202Z,52.31
2018-07-08T23:41:16.419Z,52.10
2018-07-08T23:44:19.657Z,51.90
2018-07-08T23:47:22.802Z,52.15
2018-07-08T23:50:26.003Z,51.96
2018-07-08T23:53:29.388Z,53.35
2018-07-08T23:56:32.588Z,52.70
2018-07-08T23:59:35.779Z,53.42
